createdAt,value
2022-09-23T00:00:13.633Z,990.82
2022-09-23T00:01:13.641Z,990.87
2022-09-23T00:02:13.634Z,990.95
2022-09-23T00:03:13.568Z,990.92
2022-09-23T00:04:13.565Z,990.92
2022-09-23T00:05:13.539Z,990.91
2022-09-23T00:06:13.530Z,990.92
2022-09-23T00:07:13.516Z,990.89
2022-09-23T00:08:13.624Z,990.92
2022-09-23T00:09:13.517Z,990.85
2022-09-23T00:10:13.527Z,990.88
2022-09-23T00:11:13.470Z,990.91
2022-09-23T00:12:13.492Z,990.93
2022-09-23T00:13:13.487Z,990.90
2022-09-23T00:14:13.442Z,990.80
2022-09-23T00:15:13.453Z,990.85
2022-09-23T00:16:13.482Z,990.90
2022-09-23T00:17:13.467Z,990.88
2022-09-23T00:18:13.447Z,990.86
2022-09-23T00:19:13.406Z,990.89
2022-09-23T00:20:13.425Z,990.88
2022-09-23T00:21:13.376Z,990.91
2022-09-23T00:22:13.456Z,990.90
2022-09-23T00:23:13.359Z,990.94
2022-09-23T00:24:13.403Z,990.88
2022-09-23T00:25:13.327Z,990.84
2022-09-23T00:26:13.370Z,990.85
2022-09-23T00:27:13.315Z,990.90
2022-09-23T00:28:13.308Z,990.86
2022-09-23T00:29:13.384Z,990.88
2022-09-23T00:30:13.278Z,990.84
2022-09-23T00:31:13.317Z,990.88
2022-09-23T00:32:13.255Z,990.83
2022-09-23T00:33:13.244Z,990.85
2022-09-23T00:35:40.491Z,990.85
2022-09-23T00:36:40.469Z,990.86
2022-09-23T00:37:40.455Z,990.80
2022-09-23T00:38:40.464Z,990.78
2022-09-23T00:39:40.428Z,990.80
2022-09-23T00:40:40.549Z,990.80
2022-09-23T00:41:40.437Z,990.80
2022-09-23T00:42:40.401Z,990.78
2022-09-23T00:43:40.452Z,990.73
2022-09-23T00:44:40.393Z,990.73
2022-09-23T00:45:40.434Z,990.79
2022-09-23T00:46:40.355Z,990.71
2022-09-23T00:47:40.354Z,990.75
2022-09-23T00:48:40.381Z,990.71
2022-09-23T00:49:40.333Z,990.74
2022-09-23T00:50:40.314Z,990.65
2022-09-23T00:51:40.342Z,990.67
2022-09-23T00:52:40.301Z,990.73
2022-09-23T00:53:40.320Z,990.74
2022-09-23T00:54:40.272Z,990.73
2022-09-23T00:55:40.296Z,990.77
2022-09-23T00:56:40.255Z,990.73
2022-09-23T00:57:40.313Z,990.68
2022-09-23T00:58:40.250Z,990.69
2022-09-23T00:59:40.230Z,990.60
2022-09-23T01:00:40.324Z,990.64
2022-09-23T01:01:40.276Z,990.61
2022-09-23T01:02:40.250Z,990.56
2022-09-23T01:03:40.239Z,990.60
2022-09-23T01:04:40.162Z,990.59
2022-09-23T01:05:40.157Z,990.63
2022-09-23T01:06:40.184Z,990.65
2022-09-23T01:07:40.170Z,990.69
2022-09-23T01:08:40.145Z,990.57
2022-09-23T01:09:40.121Z,990.57
2022-09-23T01:10:40.142Z,990.55
2022-09-23T01:11:40.089Z,990.54
2022-09-23T01:12:40.084Z,990.55
2022-09-23T01:13:40.080Z,990.57
2022-09-23T01:14:40.059Z,990.52
2022-09-23T01:15:40.052Z,990.56
2022-09-23T01:16:40.146Z,990.51
2022-09-23T01:17:40.025Z,990.58
2022-09-23T01:18:40.045Z,990.56
2022-09-23T01:19:40.014Z,990.54
2022-09-23T01:20:40.027Z,990.64
2022-09-23T01:21:39.980Z,990.52
2022-09-23T01:22:39.999Z,990.59
2022-09-23T01:23:39.976Z,990.60
2022-09-23T01:24:39.949Z,990.59
2022-09-23T01:25:39.937Z,990.57
2022-09-23T01:26:39.931Z,990.56
2022-09-23T01:27:39.949Z,990.55
2022-09-23T01:28:39.934Z,990.47
2022-09-23T01:29:39.900Z,990.53
2022-09-23T01:30:39.900Z,990.50
2022-09-23T01:31:39.878Z,990.41
2022-09-23T01:32:39.931Z,990.49
2022-09-23T01:33:39.907Z,990.55
2022-09-23T01:34:39.851Z,990.50
2022-09-23T01:35:39.838Z,990.50
2022-09-23T01:36:39.823Z,990.48
2022-09-23T01:37:39.817Z,990.51
2022-09-23T01:38:39.845Z,990.44
2022-09-23T01:39:39.789Z,990.48
2022-09-23T01:40:39.832Z,990.43
2022-09-23T01:41:39.772Z,990.47
2022-09-23T01:42:39.765Z,990.48
2022-09-23T01:43:39.790Z,990.43
2022-09-23T01:44:39.745Z,990.40
2022-09-23T01:45:39.725Z,990.42
2022-09-23T01:46:39.734Z,990.43
2022-09-23T01:47:39.768Z,990.43
2022-09-23T01:48:39.765Z,990.39
2022-09-23T01:49:39.680Z,990.46
2022-09-23T01:50:39.668Z,990.41
2022-09-23T01:51:39.657Z,990.44
2022-09-23T01:52:39.649Z,990.41
2022-09-23T01:53:39.685Z,990.47
2022-09-23T01:54:39.650Z,990.46
2022-09-23T01:55:39.633Z,990.49
2022-09-23T01:56:39.616Z,990.48
2022-09-23T01:57:39.601Z,990.45
2022-09-23T01:58:39.639Z,990.45
2022-09-23T01:59:39.572Z,990.51
2022-09-23T02:00:39.619Z,990.45
2022-09-23T02:01:39.907Z,990.44
2022-09-23T02:02:39.627Z,990.47
2022-09-23T02:03:39.546Z,990.45
2022-09-23T02:04:39.575Z,990.43
2022-09-23T02:05:39.531Z,990.48
2022-09-23T02:06:39.622Z,990.47
2022-09-23T02:07:39.493Z,990.46
2022-09-23T02:08:39.484Z,990.42
2022-09-23T02:09:39.501Z,990.47
2022-09-23T02:10:39.468Z,990.50
2022-09-23T02:11:39.478Z,990.46
2022-09-23T02:12:39.472Z,990.48
2022-09-23T02:13:39.435Z,990.53
2022-09-23T02:14:39.456Z,990.51
2022-09-23T02:15:39.508Z,990.54
2022-09-23T02:16:39.550Z,990.52
2022-09-23T02:17:39.398Z,990.50
2022-09-23T02:18:39.382Z,990.50
2022-09-23T02:19:39.382Z,990.52
2022-09-23T02:20:39.371Z,990.60
2022-09-23T02:21:39.368Z,990.58
2022-09-23T02:22:39.378Z,990.55
2022-09-23T02:23:39.353Z,990.62
2022-09-23T02:24:39.338Z,990.59
2022-09-23T02:25:39.305Z,990.58
2022-09-23T02:26:39.291Z,990.57
2022-09-23T02:27:39.313Z,990.58
2022-09-23T02:28:39.284Z,990.56
2022-09-23T02:29:39.250Z,990.65
2022-09-23T02:30:39.260Z,990.65
2022-09-23T02:31:39.256Z,990.66
2022-09-23T02:32:39.547Z,990.67
2022-09-23T02:33:39.249Z,990.66
2022-09-23T02:34:39.222Z,990.63
2022-09-23T02:35:39.190Z,990.63
2022-09-23T02:36:39.208Z,990.66
2022-09-23T02:37:39.197Z,990.65
2022-09-23T02:38:39.189Z,990.64
2022-09-23T02:39:39.151Z,990.65
2022-09-23T02:40:39.152Z,990.60
2022-09-23T02:41:39.160Z,990.64
2022-09-23T02:42:39.177Z,990.62
2022-09-23T02:43:39.114Z,990.58
2022-09-23T02:44:39.097Z,990.63
2022-09-23T02:45:39.250Z,990.58
2022-09-23T02:46:39.078Z,990.58
2022-09-23T02:47:39.110Z,990.59
2022-09-23T02:48:39.047Z,990.55
2022-09-23T02:49:39.037Z,990.49
2022-09-23T02:50:39.032Z,990.52
2022-09-23T02:51:39.044Z,990.48
2022-09-23T02:52:39.054Z,990.47
2022-09-23T02:53:39.010Z,990.41
2022-09-23T02:54:38.983Z,990.42
2022-09-23T02:55:38.977Z,990.42
2022-09-23T02:56:38.998Z,990.44
2022-09-23T02:57:38.955Z,990.43
2022-09-23T02:58:38.981Z,990.35
2022-09-23T02:59:38.961Z,990.39
2022-09-23T03:00:38.923Z,990.39
2022-09-23T03:01:38.938Z,990.38
2022-09-23T03:02:39.017Z,990.41
2022-09-23T03:03:38.907Z,990.37
2022-09-23T03:04:38.931Z,990.43
2022-09-23T03:05:38.865Z,990.36
2022-09-23T03:06:38.854Z,990.44
2022-09-23T03:07:38.866Z,990.41
2022-09-23T03:08:38.855Z,990.45
2022-09-23T03:09:38.829Z,990.41
2022-09-23T03:10:38.915Z,990.42
2022-09-23T03:11:38.801Z,990.41
2022-09-23T03:12:38.815Z,990.34
2022-09-23T03:13:38.789Z,990.38
2022-09-23T03:14:38.774Z,990.36
2022-09-23T03:15:38.757Z,990.34
2022-09-23T03:16:38.852Z,990.40
2022-09-23T03:17:38.836Z,990.38
2022-09-23T03:18:38.723Z,990.38
2022-09-23T03:19:38.735Z,990.33
2022-09-23T03:20:38.748Z,990.35
2022-09-23T03:21:38.758Z,990.38
2022-09-23T03:22:38.707Z,990.40
2022-09-23T03:23:38.761Z,990.43
2022-09-23T03:24:38.696Z,990.33
2022-09-23T03:25:38.656Z,990.37
2022-09-23T03:26:38.644Z,990.36
2022-09-23T03:27:38.636Z,990.38
2022-09-23T03:28:38.644Z,990.33
2022-09-23T03:29:38.657Z,990.32
2022-09-23T03:30:38.612Z,990.32
2022-09-23T03:31:38.706Z,990.34
2022-09-23T03:32:38.581Z,990.36
2022-09-23T03:33:38.610Z,990.30
2022-09-23T03:34:38.562Z,990.34
2022-09-23T03:35:38.544Z,990.32
2022-09-23T03:36:38.565Z,990.33
2022-09-23T03:37:38.570Z,990.36
2022-09-23T03:38:38.518Z,990.37
2022-09-23T03:39:38.533Z,990.32
2022-09-23T03:40:38.574Z,990.33
2022-09-23T03:41:38.501Z,990.28
2022-09-23T03:42:38.490Z,990.33
2022-09-23T03:43:39.074Z,990.29
2022-09-23T03:44:38.482Z,990.28
2022-09-23T03:45:38.627Z,990.28
2022-09-23T03:46:38.435Z,990.31
2022-09-23T03:47:38.458Z,990.22
2022-09-23T03:48:38.408Z,990.28
2022-09-23T03:49:38.454Z,990.25
2022-09-23T03:50:38.391Z,990.26
2022-09-23T03:51:41.560Z,990.28
2022-09-23T03:52:39.390Z,990.27
2022-09-23T03:53:38.441Z,990.23
2022-09-23T03:54:38.355Z,990.22
2022-09-23T03:55:38.365Z,990.20
2022-09-23T03:56:38.344Z,990.24
2022-09-23T03:57:38.336Z,990.20
2022-09-23T03:58:38.308Z,990.22
2022-09-23T03:59:38.337Z,990.24
2022-09-23T04:00:38.349Z,990.22
2022-09-23T04:01:38.311Z,990.14
2022-09-23T04:02:38.285Z,990.20
2022-09-23T04:03:38.304Z,990.18
2022-09-23T04:04:38.251Z,990.19
2022-09-23T04:05:38.268Z,990.15
2022-09-23T04:06:38.215Z,990.18
2022-09-23T04:07:38.272Z,990.13
2022-09-23T04:08:38.237Z,990.12
2022-09-23T04:09:38.221Z,990.13
2022-09-23T04:10:38.199Z,990.11
2022-09-23T04:11:38.225Z,990.12
2022-09-23T04:12:38.177Z,990.08
2022-09-23T04:13:38.154Z,990.14
2022-09-23T04:14:38.157Z,990.16
2022-09-23T04:15:38.158Z,990.14
2022-09-23T04:16:38.159Z,990.09
2022-09-23T04:17:38.129Z,990.12
2022-09-23T04:18:38.122Z,990.11
2022-09-23T04:19:38.115Z,990.16
2022-09-23T04:20:38.071Z,990.14
2022-09-23T04:21:38.066Z,990.13
2022-09-23T04:22:38.090Z,990.18
2022-09-23T04:23:38.046Z,990.18
2022-09-23T04:24:38.030Z,990.12
2022-09-23T04:25:38.055Z,990.13
2022-09-23T04:26:38.035Z,990.20
2022-09-23T04:27:38.197Z,990.19
2022-09-23T04:28:38.023Z,990.13
2022-09-23T04:29:37.982Z,990.16
2022-09-23T04:30:37.982Z,990.14
2022-09-23T04:31:37.993Z,990.16
2022-09-23T04:32:38.030Z,990.19
2022-09-23T04:33:37.951Z,990.13
2022-09-23T04:34:37.924Z,990.12
2022-09-23T04:35:40.200Z,990.20
2022-09-23T04:36:37.893Z,990.14
2022-09-23T04:37:37.886Z,990.09
2022-09-23T04:38:37.892Z,990.12
2022-09-23T04:39:37.890Z,990.09
2022-09-23T04:40:37.948Z,990.14
2022-09-23T04:41:37.839Z,990.12
2022-09-23T04:42:37.831Z,990.12
2022-09-23T04:43:37.842Z,990.15
2022-09-23T04:44:37.820Z,990.14
2022-09-23T04:45:37.803Z,990.15
2022-09-23T04:46:37.864Z,990.16
2022-09-23T04:47:37.774Z,990.16
2022-09-23T04:48:37.788Z,990.12
2022-09-23T04:49:37.756Z,990.17
2022-09-23T04:50:37.750Z,990.18
2022-09-23T04:51:37.759Z,990.22
2022-09-23T04:52:37.759Z,990.14
2022-09-23T04:53:37.750Z,990.24
2022-09-23T04:54:37.738Z,990.22
2022-09-23T04:55:37.691Z,990.23
2022-09-23T04:56:37.682Z,990.17
2022-09-23T04:57:37.679Z,990.17
2022-09-23T04:58:37.690Z,990.22
2022-09-23T04:59:37.727Z,990.29
2022-09-23T05:00:37.709Z,990.24
2022-09-23T05:01:37.810Z,990.21
2022-09-23T05:02:37.680Z,990.24
2022-09-23T05:03:37.655Z,990.24
2022-09-23T05:04:37.627Z,990.23
2022-09-23T05:05:37.635Z,990.27
2022-09-23T05:06:37.579Z,990.25
2022-09-23T05:07:37.568Z,990.30
2022-09-23T05:08:37.575Z,990.31
2022-09-23T05:09:37.577Z,990.35
2022-09-23T05:10:37.623Z,990.36
2022-09-23T05:11:37.564Z,990.32
2022-09-23T05:12:37.515Z,990.32
2022-09-23T05:13:37.531Z,990.36
2022-09-23T05:14:37.507Z,990.38
2022-09-23T05:15:37.472Z,990.37
2022-09-23T05:16:37.545Z,990.43
2022-09-23T05:17:37.456Z,990.43
2022-09-23T05:18:37.496Z,990.35
2022-09-23T05:19:37.505Z,990.39
2022-09-23T05:20:37.426Z,990.36
2022-09-23T05:21:37.411Z,990.35
2022-09-23T05:22:37.478Z,990.38
2022-09-23T05:23:37.435Z,990.33
2022-09-23T05:24:37.424Z,990.36
2022-09-23T05:25:38.436Z,990.32
2022-09-23T05:26:37.389Z,990.35
2022-09-23T05:27:37.348Z,990.32
2022-09-23T05:28:37.400Z,990.29
2022-09-23T05:29:37.371Z,990.32
2022-09-23T05:30:37.369Z,990.26
2022-09-23T05:31:37.394Z,990.30
2022-09-23T05:32:37.361Z,990.24
2022-09-23T05:33:37.291Z,990.31
2022-09-23T05:34:37.351Z,990.31
2022-09-23T05:35:37.283Z,990.27
2022-09-23T05:36:38.907Z,990.27
2022-09-23T05:37:37.266Z,990.32
2022-09-23T05:38:37.342Z,990.30
2022-09-23T05:39:37.263Z,990.29
2022-09-23T05:40:37.308Z,990.34
2022-09-23T05:41:37.232Z,990.30
2022-09-23T05:42:37.233Z,990.27
2022-09-23T05:43:37.281Z,990.29
2022-09-23T05:44:37.241Z,990.32
2022-09-23T05:45:37.172Z,990.36
2022-09-23T05:46:37.210Z,990.28
2022-09-23T05:47:37.220Z,990.32
2022-09-23T05:48:37.331Z,990.39
2022-09-23T05:49:55.623Z,990.43
2022-09-23T05:50:38.131Z,990.36
2022-09-23T05:51:37.109Z,990.36
2022-09-23T05:52:37.137Z,990.35
2022-09-23T05:53:37.131Z,990.36
2022-09-23T05:54:37.093Z,990.32
2022-09-23T05:55:37.046Z,990.35
2022-09-23T05:56:37.058Z,990.36
2022-09-23T05:57:37.089Z,990.35
2022-09-23T05:58:37.479Z,990.35
2022-09-23T05:59:39.815Z,990.39
2022-09-23T06:00:37.005Z,990.32
2022-09-23T06:01:37.150Z,990.32
2022-09-23T06:02:37.041Z,990.27
2022-09-23T06:03:37.011Z,990.34
2022-09-23T06:04:36.972Z,990.32
2022-09-23T06:05:37.000Z,990.37
2022-09-23T06:06:36.934Z,990.32
2022-09-23T06:07:37.967Z,990.33
2022-09-23T06:08:43.931Z,990.28
2022-09-23T06:09:40.395Z,990.30
2022-09-23T06:10:36.887Z,990.27
2022-09-23T06:11:36.882Z,990.23
2022-09-23T06:12:36.875Z,990.29
2022-09-23T06:13:36.878Z,990.20
2022-09-23T06:14:36.859Z,990.22
2022-09-23T06:15:36.842Z,990.21
2022-09-23T06:16:38.677Z,990.26
2022-09-23T06:17:38.561Z,990.22
2022-09-23T06:18:36.802Z,990.18
2022-09-23T06:19:36.795Z,990.16
2022-09-23T06:20:36.812Z,990.15
2022-09-23T06:21:36.773Z,990.23
2022-09-23T06:22:39.420Z,990.16
2022-09-23T06:23:40.168Z,990.20
2022-09-23T06:24:36.809Z,990.17
2022-09-23T06:25:38.823Z,990.10
2022-09-23T06:26:38.043Z,990.07
2022-09-23T06:27:36.741Z,990.08
2022-09-23T06:28:36.712Z,990.04
2022-09-23T06:29:36.683Z,990.09
2022-09-23T06:30:36.675Z,990.03
2022-09-23T06:31:36.767Z,990.08
2022-09-23T06:32:36.700Z,989.99
2022-09-23T06:33:37.462Z,990.05
2022-09-23T06:34:47.665Z,990.02
2022-09-23T06:35:38.270Z,990.04
2022-09-23T06:36:43.342Z,990.01
2022-09-23T06:37:37.651Z,990.03
2022-09-23T06:38:36.618Z,990.09
2022-09-23T06:39:36.592Z,990.01
2022-09-23T06:40:36.658Z,990.01
2022-09-23T06:41:36.562Z,989.99
2022-09-23T06:42:36.574Z,989.97
2022-09-23T06:43:38.799Z,990.03
2022-09-23T06:44:40.419Z,990.07
2022-09-23T06:45:36.510Z,990.09
2022-09-23T06:46:36.689Z,990.01
2022-09-23T06:47:36.594Z,990.03
2022-09-23T06:48:36.487Z,990.05
2022-09-23T06:49:36.521Z,990.09
2022-09-23T06:50:36.472Z,990.13
2022-09-23T06:51:36.607Z,990.11
2022-09-23T06:52:39.269Z,990.10
2022-09-23T06:53:36.876Z,990.06
2022-09-23T06:54:36.449Z,990.06
2022-09-23T06:55:36.420Z,990.06
2022-09-23T06:56:39.426Z,990.06
2022-09-23T06:57:36.439Z,990.05
2022-09-23T06:58:36.387Z,990.12
2022-09-23T06:59:36.393Z,990.15
2022-09-23T07:00:37.172Z,990.13
2022-09-23T07:01:44.415Z,990.16
2022-09-23T07:02:36.762Z,990.09
2022-09-23T07:03:36.326Z,990.13
2022-09-23T07:04:36.319Z,990.10
2022-09-23T07:05:36.344Z,990.10
2022-09-23T07:06:36.298Z,990.11
2022-09-23T07:07:36.320Z,990.13
2022-09-23T07:08:36.311Z,990.16
2022-09-23T07:09:37.233Z,990.13
2022-09-23T07:10:37.787Z,990.09
2022-09-23T07:11:36.812Z,990.10
2022-09-23T07:12:36.252Z,990.09
2022-09-23T07:13:36.227Z,990.13
2022-09-23T07:14:36.203Z,990.13
2022-09-23T07:15:36.259Z,990.17
2022-09-23T07:16:36.216Z,990.21
2022-09-23T07:17:36.200Z,990.18
2022-09-23T07:18:37.103Z,990.21
2022-09-23T07:19:36.474Z,990.20
2022-09-23T07:20:36.802Z,990.20
2022-09-23T07:21:36.168Z,990.27
2022-09-23T07:22:36.172Z,990.20
2022-09-23T07:23:36.143Z,990.20
2022-09-23T07:24:36.215Z,990.23
2022-09-23T07:25:36.116Z,990.23
2022-09-23T07:26:36.095Z,990.25
2022-09-23T07:27:37.383Z,990.28
2022-09-23T07:28:36.474Z,990.29
2022-09-23T07:29:46.691Z,990.23
2022-09-23T07:30:37.136Z,990.26
2022-09-23T07:31:39.817Z,990.28
2022-09-23T07:32:45.662Z,990.33
2022-09-23T07:33:37.105Z,990.32
2022-09-23T07:34:36.007Z,990.30
2022-09-23T07:35:36.027Z,990.32
2022-09-23T07:36:37.648Z,990.31
2022-09-23T07:37:37.542Z,990.34
2022-09-23T07:38:35.956Z,990.33
2022-09-23T07:39:35.944Z,990.38
2022-09-23T07:40:36.064Z,990.36
2022-09-23T07:41:35.924Z,990.33
2022-09-23T07:42:35.936Z,990.32
2022-09-23T07:43:35.977Z,990.33
2022-09-23T07:44:35.920Z,990.33
2022-09-23T07:45:37.578Z,990.37
2022-09-23T07:46:37.605Z,990.40
2022-09-23T07:47:35.858Z,990.38
2022-09-23T07:48:35.882Z,990.33
2022-09-23T07:49:35.839Z,990.32
2022-09-23T07:50:35.853Z,990.38
2022-09-23T07:51:36.798Z,990.38
2022-09-23T07:52:35.800Z,990.32
2022-09-23T07:53:35.888Z,990.35
2022-09-23T07:54:36.427Z,990.32
2022-09-23T07:55:36.024Z,990.34
2022-09-23T07:56:35.770Z,990.40
2022-09-23T07:57:35.744Z,990.39
2022-09-23T07:58:35.754Z,990.43
2022-09-23T07:59:35.712Z,990.39
2022-09-23T08:00:35.706Z,990.43
2022-09-23T08:01:35.751Z,990.39
2022-09-23T08:02:35.793Z,990.43
2022-09-23T08:03:36.342Z,990.40
2022-09-23T08:04:35.800Z,990.36
2022-09-23T08:05:35.661Z,990.37
2022-09-23T08:06:35.637Z,990.38
2022-09-23T08:07:35.627Z,990.40
2022-09-23T08:08:35.640Z,990.35
2022-09-23T08:09:35.667Z,990.38
2022-09-23T08:10:35.643Z,990.37
2022-09-23T08:11:35.602Z,990.37
2022-09-23T08:12:36.569Z,990.36
2022-09-23T08:13:36.067Z,990.37
2022-09-23T08:14:35.679Z,990.34
2022-09-23T08:15:35.584Z,990.38
2022-09-23T08:16:35.533Z,990.35
2022-09-23T08:17:35.606Z,990.40
2022-09-23T08:18:35.572Z,990.36
2022-09-23T08:19:35.495Z,990.34
2022-09-23T08:20:35.965Z,990.37
2022-09-23T08:21:35.884Z,990.34
2022-09-23T08:22:35.711Z,990.37
2022-09-23T08:23:35.472Z,990.30
2022-09-23T08:24:35.473Z,990.37
2022-09-23T08:25:35.431Z,990.36
2022-09-23T08:26:35.444Z,990.32
2022-09-23T08:27:35.486Z,990.32
2022-09-23T08:28:35.440Z,990.28
2022-09-23T08:29:35.855Z,990.25
2022-09-23T08:30:36.727Z,990.22
2022-09-23T08:31:35.994Z,990.18
2022-09-23T08:32:35.361Z,990.21
2022-09-23T08:33:35.372Z,990.22
2022-09-23T08:34:35.344Z,990.17
2022-09-23T08:35:35.450Z,990.24
2022-09-23T08:36:35.444Z,990.28
2022-09-23T08:37:35.305Z,990.21
2022-09-23T08:38:35.388Z,990.27
2022-09-23T08:39:35.821Z,990.22
2022-09-23T08:40:35.748Z,990.25
2022-09-23T08:41:35.276Z,990.23
2022-09-23T08:42:35.289Z,990.18
2022-09-23T08:43:35.255Z,990.15
2022-09-23T08:44:35.302Z,990.16
2022-09-23T08:45:35.305Z,990.19
2022-09-23T08:46:35.236Z,990.17
2022-09-23T08:47:35.294Z,990.18
2022-09-23T08:48:35.491Z,990.14
2022-09-23T08:49:37.635Z,990.17
2022-09-23T08:50:35.232Z,990.15
2022-09-23T08:51:35.177Z,990.13
2022-09-23T08:52:35.189Z,990.08
2022-09-23T08:53:35.267Z,990.15
2022-09-23T08:54:35.291Z,990.11
2022-09-23T08:55:35.146Z,990.13
2022-09-23T08:56:35.477Z,990.09
2022-09-23T08:57:35.239Z,990.13
2022-09-23T08:58:35.107Z,990.16
2022-09-23T08:59:35.069Z,990.10
2022-09-23T09:00:35.100Z,990.12
2022-09-23T09:01:35.166Z,990.08
2022-09-23T09:02:35.136Z,990.08
2022-09-23T09:03:35.112Z,990.05
2022-09-23T09:04:35.042Z,990.12
2022-09-23T09:05:35.560Z,990.09
2022-09-23T09:06:45.538Z,990.10
2022-09-23T09:07:37.350Z,990.10
2022-09-23T09:08:35.030Z,990.13
2022-09-23T09:09:34.956Z,990.10
2022-09-23T09:10:34.980Z,990.10
2022-09-23T09:11:35.167Z,990.13
2022-09-23T09:12:34.964Z,990.12
2022-09-23T09:13:34.938Z,990.11
2022-09-23T09:14:35.129Z,990.05
2022-09-23T09:15:35.196Z,990.10
2022-09-23T09:16:58.216Z,990.08
2022-09-23T09:17:35.889Z,990.03
2022-09-23T09:18:34.899Z,990.05
2022-09-23T09:19:34.936Z,990.03
2022-09-23T09:20:34.927Z,990.06
2022-09-23T09:21:34.849Z,990.04
2022-09-23T09:23:35.624Z,990.04
2022-09-23T09:24:35.108Z,990.06
2022-09-23T09:25:34.964Z,990.03
2022-09-23T09:26:34.774Z,990.05
2022-09-23T09:27:34.766Z,990.01
2022-09-23T09:28:34.827Z,990.08
2022-09-23T09:29:36.172Z,990.01
2022-09-23T09:30:34.730Z,990.04
2022-09-23T09:31:34.790Z,990.09
2022-09-23T09:32:35.280Z,990.03
2022-09-23T09:33:35.610Z,990.00
2022-09-23T09:34:34.723Z,990.00
2022-09-23T09:35:34.687Z,989.98
2022-09-23T09:36:34.685Z,989.95
2022-09-23T09:37:34.691Z,989.99
2022-09-23T09:38:34.675Z,989.95
2022-09-23T09:39:34.672Z,989.93
2022-09-23T09:40:34.771Z,989.90
2022-09-23T09:41:35.418Z,989.91
2022-09-23T09:42:34.919Z,989.86
2022-09-23T09:43:34.620Z,989.90
2022-09-23T09:44:37.049Z,989.89
2022-09-23T09:45:34.573Z,989.90
2022-09-23T09:46:34.682Z,989.93
2022-09-23T09:47:34.752Z,989.87
2022-09-23T09:48:34.603Z,989.90
2022-09-23T09:49:39.535Z,989.86
2022-09-23T09:50:35.777Z,989.86
2022-09-23T09:51:34.679Z,989.85
2022-09-23T09:52:34.518Z,989.82
2022-09-23T09:53:34.442Z,989.82
2022-09-23T09:54:34.427Z,989.85
2022-09-23T09:55:34.603Z,989.79
2022-09-23T09:56:34.570Z,989.82
2022-09-23T09:57:36.090Z,989.76
2022-09-23T09:58:34.430Z,989.78
2022-09-23T09:59:35.899Z,989.75
2022-09-23T10:00:34.434Z,989.75
2022-09-23T10:01:34.464Z,989.74
2022-09-23T10:02:34.355Z,989.67
2022-09-23T10:03:34.343Z,989.74
2022-09-23T10:04:34.522Z,989.71
2022-09-23T10:05:34.369Z,989.78
2022-09-23T10:06:34.307Z,989.72
2022-09-23T10:07:34.332Z,989.71
2022-09-23T10:08:34.377Z,989.70
2022-09-23T10:09:34.907Z,989.73
2022-09-23T10:10:34.381Z,989.63
2022-09-23T10:11:34.260Z,989.67
2022-09-23T10:12:34.352Z,989.66
2022-09-23T10:13:34.289Z,989.62
2022-09-23T10:14:34.206Z,989.65
2022-09-23T10:15:34.250Z,989.68
2022-09-23T10:16:34.332Z,989.67
2022-09-23T10:17:34.335Z,989.61
2022-09-23T10:18:34.216Z,989.67
2022-09-23T10:19:34.214Z,989.66
2022-09-23T10:20:34.191Z,989.69
2022-09-23T10:21:34.199Z,989.70
2022-09-23T10:22:34.266Z,989.63
2022-09-23T10:23:34.154Z,989.63
2022-09-23T10:24:34.115Z,989.59
2022-09-23T10:25:34.146Z,989.63
2022-09-23T10:26:34.235Z,989.53
2022-09-23T10:27:34.125Z,989.55
2022-09-23T10:28:34.064Z,989.57
2022-09-23T10:29:34.049Z,989.52
2022-09-23T10:30:34.062Z,989.49
2022-09-23T10:31:34.272Z,989.51
2022-09-23T10:32:34.083Z,989.42
2022-09-23T10:33:34.053Z,989.42
2022-09-23T10:34:34.052Z,989.41
2022-09-23T10:35:34.057Z,989.42
2022-09-23T10:36:34.015Z,989.35
2022-09-23T10:37:33.981Z,989.40
2022-09-23T10:38:33.958Z,989.43
2022-09-23T10:39:33.995Z,989.37
2022-09-23T10:40:34.048Z,989.39
2022-09-23T10:41:33.994Z,989.35
2022-09-23T10:42:33.987Z,989.37
2022-09-23T10:43:34.699Z,989.37
2022-09-23T10:44:34.154Z,989.38
2022-09-23T10:45:33.890Z,989.40
2022-09-23T10:46:33.943Z,989.35
2022-09-23T10:47:33.918Z,989.36
2022-09-23T10:48:33.877Z,989.32
2022-09-23T10:49:34.058Z,989.37
2022-09-23T10:50:33.858Z,989.35
2022-09-23T10:51:33.848Z,989.40
2022-09-23T10:52:34.425Z,989.35
2022-09-23T10:53:34.058Z,989.33
2022-09-23T10:54:33.805Z,989.35
2022-09-23T10:55:33.828Z,989.35
2022-09-23T10:56:33.815Z,989.36
2022-09-23T10:57:33.846Z,989.35
2022-09-23T10:58:33.941Z,989.30
2022-09-23T10:59:33.779Z,989.30
2022-09-23T11:00:33.758Z,989.33
2022-09-23T11:01:33.946Z,989.34
2022-09-23T11:02:33.818Z,989.32
2022-09-23T11:03:33.713Z,989.33
2022-09-23T11:04:33.757Z,989.35
2022-09-23T11:05:33.709Z,989.31
2022-09-23T11:06:33.709Z,989.35
2022-09-23T11:07:36.946Z,989.29
2022-09-23T11:08:33.676Z,989.26
2022-09-23T11:09:33.648Z,989.25
2022-09-23T11:10:48.164Z,989.31
2022-09-23T11:11:35.015Z,989.26
2022-09-23T11:12:33.655Z,989.24
2022-09-23T11:13:33.646Z,989.23
2022-09-23T11:14:33.604Z,989.15
2022-09-23T11:15:33.651Z,989.10
2022-09-23T11:16:33.670Z,989.11
2022-09-23T11:17:33.605Z,989.10
2022-09-23T11:18:33.563Z,989.09
2022-09-23T11:19:34.443Z,989.19
2022-09-23T11:20:34.579Z,989.14
2022-09-23T11:21:33.560Z,989.12
2022-09-23T11:22:33.552Z,989.11
2022-09-23T11:23:33.556Z,989.09
2022-09-23T11:24:33.561Z,989.07
2022-09-23T11:25:33.575Z,989.06
2022-09-23T11:26:33.567Z,989.00
2022-09-23T11:27:33.481Z,988.96
2022-09-23T11:28:33.953Z,988.89
2022-09-23T11:29:33.825Z,988.92
2022-09-23T11:30:33.474Z,988.86
2022-09-23T11:31:33.461Z,988.91
2022-09-23T11:32:33.465Z,988.91
2022-09-23T11:33:33.441Z,988.94
2022-09-23T11:34:33.432Z,988.85
2022-09-23T11:35:33.397Z,988.86
2022-09-23T11:36:33.368Z,988.87
2022-09-23T11:37:33.520Z,988.89
2022-09-23T11:38:33.623Z,988.81
2022-09-23T11:39:33.354Z,988.86
2022-09-23T11:40:33.411Z,988.80
2022-09-23T11:41:33.317Z,988.73
2022-09-23T11:42:33.362Z,988.83
2022-09-23T11:43:33.314Z,988.83
2022-09-23T11:44:33.280Z,988.77
2022-09-23T11:45:33.340Z,988.73
2022-09-23T11:46:33.338Z,988.75
2022-09-23T11:47:36.468Z,988.71
2022-09-23T11:48:34.297Z,988.82
2022-09-23T11:49:33.250Z,988.75
2022-09-23T11:50:33.225Z,988.74
2022-09-23T11:51:33.252Z,988.75
2022-09-23T11:52:33.224Z,988.68
2022-09-23T11:53:33.190Z,988.70
2022-09-23T11:54:33.217Z,988.69
2022-09-23T11:55:34.473Z,988.71
2022-09-23T11:56:36.231Z,988.68
2022-09-23T11:57:46.219Z,988.73
2022-09-23T11:58:34.204Z,988.65
2022-09-23T11:59:40.062Z,988.71
2022-09-23T12:00:34.140Z,988.63
2022-09-23T12:01:37.691Z,988.63
2022-09-23T12:02:34.223Z,988.57
2022-09-23T12:03:43.135Z,988.61
2022-09-23T12:04:35.914Z,988.57
2022-09-23T12:05:33.224Z,988.60
2022-09-23T12:06:33.063Z,988.64
2022-09-23T12:07:33.067Z,988.60
2022-09-23T12:08:33.051Z,988.63
2022-09-23T12:09:56.796Z,988.60
2022-09-23T12:10:34.041Z,988.54
2022-09-23T12:11:33.011Z,988.55
2022-09-23T12:12:34.394Z,988.51
2022-09-23T12:13:33.159Z,988.53
2022-09-23T12:14:33.052Z,988.50
2022-09-23T12:15:32.968Z,988.58
2022-09-23T12:16:32.999Z,988.55
2022-09-23T12:17:32.968Z,988.52
2022-09-23T12:18:32.964Z,988.54
2022-09-23T12:19:32.927Z,988.59
2022-09-23T12:20:32.935Z,988.50
2022-09-23T12:22:34.780Z,988.55
2022-09-23T12:23:33.102Z,988.52
2022-09-23T12:24:32.907Z,988.54
2022-09-23T12:25:32.866Z,988.54
2022-09-23T12:26:33.752Z,988.49
2022-09-23T12:27:32.865Z,988.48
2022-09-23T12:28:32.868Z,988.42
2022-09-23T12:29:35.852Z,988.43
2022-09-23T12:30:33.515Z,988.55
2022-09-23T12:31:34.823Z,988.50